sensor_id;sensor_type;location;lat;lon;timestamp;pressure;altitude;pressure_sealevel;temperature;humidity
36254;BME280;22291;52.250;21.228;2023-02-05T00:48:03;102050.75;;;-3.97;77.40
36254;BME280;22291;52.250;21.228;2023-02-05T00:50:31;102049.28;;;-4.04;77.28
36254;BME280;22291;52.250;21.228;2023-02-05T00:52:58;102050.94;;;-4.03;77.30
36254;BME280;22291;52.250;21.228;2023-02-05T00:55:25;102052.09;;;-4.01;77.54
36254;BME280;22291;52.250;21.228;2023-02-05T00:57:51;102049.96;;;-4.02;77.39
36254;BME280;22291;52.250;21.228;2023-02-05T01:00:19;102060.17;;;-3.99;77.33
36254;BME280;22291;52.250;21.228;2023-02-05T01:02:45;102064.82;;;-3.97;77.33
36254;BME280;22291;52.250;21.228;2023-02-05T01:05:12;102063.50;;;-3.97;77.19
36254;BME280;22291;52.250;21.228;2023-02-05T01:07:39;102064.31;;;-3.96;77.11
36254;BME280;22291;52.250;21.228;2023-02-05T01:10:07;102069.91;;;-3.95;77.20
36254;BME280;22291;52.250;21.228;2023-02-05T01:12:34;102069.27;;;-3.93;77.15
36254;BME280;22291;52.250;21.228;2023-02-05T01:15:02;102059.00;;;-3.92;77.21
36254;BME280;22291;52.250;21.228;2023-02-05T01:17:30;102057.01;;;-3.90;77.22
36254;BME280;22291;52.250;21.228;2023-02-05T01:19:57;102054.87;;;-3.90;77.19
36254;BME280;22291;52.250;21.228;2023-02-05T01:22:23;102051.25;;;-3.89;77.17
36254;BME280;22291;52.250;21.228;2023-02-05T01:24:51;102054.03;;;-3.87;77.14
36254;BME280;22291;52.250;21.228;2023-02-05T01:27:17;102058.48;;;-3.83;77.21
36254;BME280;22291;52.250;21.228;2023-02-05T01:29:43;102054.52;;;-3.83;77.23
36254;BME280;22291;52.250;21.228;2023-02-05T01:32:10;102051.70;;;-3.82;77.06
36254;BME280;22291;52.250;21.228;2023-02-05T01:34:36;102041.62;;;-3.82;77.06
36254;BME280;22291;52.250;21.228;2023-02-05T01:37:03;102041.80;;;-3.84;77.03
36254;BME280;22291;52.250;21.228;2023-02-05T01:39:29;102045.26;;;-3.83;77.05
36254;BME280;22291;52.250;21.228;2023-02-05T01:41:55;102044.27;;;-3.82;77.08
36254;BME280;22291;52.250;21.228;2023-02-05T01:44:22;102039.32;;;-3.85;77.07
36254;BME280;22291;52.250;21.228;2023-02-05T01:46:54;102046.11;;;-3.83;77.24
36254;BME280;22291;52.250;21.228;2023-02-05T01:49:30;102050.37;;;-3.82;77.22
36254;BME280;22291;52.250;21.228;2023-02-05T01:51:59;102043.29;;;-3.81;77.16
36254;BME280;22291;52.250;21.228;2023-02-05T01:54:29;102038.64;;;-3.83;77.17
36254;BME280;22291;52.250;21.228;2023-02-05T01:57:18;102036.00;;;-3.83;77.15
36254;BME280;22291;52.250;21.228;2023-02-05T01:59:36;102034.84;;;-3.85;77.17
36254;BME280;22291;52.250;21.228;2023-02-05T02:02:04;102034.03;;;-3.85;77.08
36254;BME280;22291;52.250;21.228;2023-02-05T02:04:38;102035.53;;;-3.83;77.22
36254;BME280;22291;52.250;21.228;2023-02-05T02:07:08;102032.38;;;-3.82;77.27
36254;BME280;22291;52.250;21.228;2023-02-05T02:09:39;102031.88;;;-3.82;77.28
36254;BME280;22291;52.250;21.228;2023-02-05T02:12:09;102029.39;;;-3.83;77.30
36254;BME280;22291;52.250;21.228;2023-02-05T02:14:39;102034.20;;;-3.83;77.20
36254;BME280;22291;52.250;21.228;2023-02-05T02:17:08;102035.02;;;-3.82;77.22
36254;BME280;22291;52.250;21.228;2023-02-05T02:20:02;102035.53;;;-3.83;77.30
36254;BME280;22291;52.250;21.228;2023-02-05T02:25:46;102038.81;;;-3.85;77.25
36254;BME280;22291;52.250;21.228;2023-02-05T02:28:27;102045.62;;;-3.86;77.26
36254;BME280;22291;52.250;21.228;2023-02-05T02:33:54;102042.13;;;-3.87;77.40
36254;BME280;22291;52.250;21.228;2023-02-05T02:36:33;102044.78;;;-3.87;77.34
36254;BME280;22291;52.250;21.228;2023-02-05T02:39:22;102051.55;;;-3.88;77.45
36254;BME280;22291;52.250;21.228;2023-02-05T02:41:56;102055.21;;;-3.89;77.46
36254;BME280;22291;52.250;21.228;2023-02-05T02:47:22;102055.69;;;-3.90;77.45
36254;BME280;22291;52.250;21.228;2023-02-05T02:49:59;102061.48;;;-3.90;77.43
36254;BME280;22291;52.250;21.228;2023-02-05T02:52:34;102064.63;;;-3.91;77.51
36254;BME280;22291;52.250;21.228;2023-02-05T02:55:06;102067.78;;;-3.91;77.53
36254;BME280;22291;52.250;21.228;2023-02-05T02:57:36;102072.56;;;-3.91;77.44
36254;BME280;22291;52.250;21.228;2023-02-05T03:00:09;102076.19;;;-3.92;77.44
36254;BME280;22291;52.250;21.228;2023-02-05T03:02:42;102073.23;;;-3.93;77.38
36254;BME280;22291;52.250;21.228;2023-02-05T03:05:16;102078.36;;;-3.91;77.50
36254;BME280;22291;52.250;21.228;2023-02-05T03:07:51;102073.41;;;-3.95;77.38
36254;BME280;22291;52.250;21.228;2023-02-05T03:10:37;102079.50;;;-3.94;77.45
36254;BME280;22291;52.250;21.228;2023-02-05T03:13:10;102088.09;;;-3.92;77.52
36254;BME280;22291;52.250;21.228;2023-02-05T03:15:43;102084.13;;;-3.92;77.53
36254;BME280;22291;52.250;21.228;2023-02-05T03:18:07;102080.33;;;-3.89;77.68
36254;BME280;22291;52.250;21.228;2023-02-05T03:20:55;102080.33;;;-3.89;77.71
36254;BME280;22291;52.250;21.228;2023-02-05T03:23:28;102080.16;;;-3.88;77.66
36254;BME280;22291;52.250;21.228;2023-02-05T03:25:54;102072.06;;;-3.86;77.80
36254;BME280;22291;52.250;21.228;2023-02-05T03:28:21;102083.12;;;-3.83;77.74
36254;BME280;22291;52.250;21.228;2023-02-05T03:31:00;102079.81;;;-3.81;77.82
36254;BME280;22291;52.250;21.228;2023-02-05T03:37:11;102082.59;;;-3.78;77.68
36254;BME280;22291;52.250;21.228;2023-02-05T03:46:08;102069.71;;;-3.77;77.49
36254;BME280;22291;52.250;21.228;2023-02-05T03:54:31;102066.59;;;-3.81;77.43
36254;BME280;22291;52.250;21.228;2023-02-05T03:56:58;102068.25;;;-3.80;77.61
36254;BME280;22291;52.250;21.228;2023-02-05T03:59:26;102066.92;;;-3.80;77.67
36254;BME280;22291;52.250;21.228;2023-02-05T04:01:54;102062.45;;;-3.79;77.49
36254;BME280;22291;52.250;21.228;2023-02-05T04:04:21;102063.77;;;-3.79;77.41
36254;BME280;22291;52.250;21.228;2023-02-05T04:06:49;102065.09;;;-3.79;77.51
36254;BME280;22291;52.250;21.228;2023-02-05T04:09:16;102067.74;;;-3.79;77.58
36254;BME280;22291;52.250;21.228;2023-02-05T04:11:42;102075.34;;;-3.76;77.71
36254;BME280;22291;52.250;21.228;2023-02-05T04:14:09;102076.66;;;-3.76;77.62
36254;BME280;22291;52.250;21.228;2023-02-05T04:16:35;102080.63;;;-3.76;77.49
36254;BME280;22291;52.250;21.228;2023-02-05T04:19:02;102072.86;;;-3.78;77.49
36254;BME280;22291;52.250;21.228;2023-02-05T04:21:28;102072.86;;;-3.78;77.40
36254;BME280;22291;52.250;21.228;2023-02-05T04:23:55;102065.09;;;-3.79;77.52
36254;BME280;22291;52.250;21.228;2023-02-05T04:26:21;102066.92;;;-3.80;77.48
36254;BME280;22291;52.250;21.228;2023-02-05T04:28:47;102066.42;;;-3.79;77.42
36254;BME280;22291;52.250;21.228;2023-02-05T04:31:14;102072.69;;;-3.80;77.51
36254;BME280;22291;52.250;21.228;2023-02-05T04:33:40;102073.84;;;-3.79;77.50
36254;BME280;22291;52.250;21.228;2023-02-05T04:36:08;102076.66;;;-3.80;77.55
36254;BME280;22291;52.250;21.228;2023-02-05T04:38:35;102080.63;;;-3.80;77.64
36254;BME280;22291;52.250;21.228;2023-02-05T04:41:01;102085.44;;;-3.80;77.64
36254;BME280;22291;52.250;21.228;2023-02-05T04:43:28;102085.44;;;-3.80;77.65
36254;BME280;22291;52.250;21.228;2023-02-05T04:45:54;102089.88;;;-3.80;77.67
36254;BME280;22291;52.250;21.228;2023-02-05T04:48:20;102089.23;;;-3.82;77.75
36254;BME280;22291;52.250;21.228;2023-02-05T04:50:47;102081.80;;;-3.83;77.78
36254;BME280;22291;52.250;21.228;2023-02-05T04:53:13;102094.35;;;-3.81;77.93
36254;BME280;22291;52.250;21.228;2023-02-05T04:55:39;102095.67;;;-3.81;77.84
36254;BME280;22291;52.250;21.228;2023-02-05T04:58:05;102095.67;;;-3.81;77.91
36254;BME280;22291;52.250;21.228;2023-02-05T05:00:32;102091.70;;;-3.81;77.95
36254;BME280;22291;52.250;21.228;2023-02-05T05:02:58;102089.88;;;-3.80;78.08
36254;BME280;22291;52.250;21.228;2023-02-05T05:05:24;102089.06;;;-3.81;77.91
36254;BME280;22291;52.250;21.228;2023-02-05T05:07:50;102081.30;;;-3.82;77.92
36254;BME280;22291;52.250;21.228;2023-02-05T05:10:17;102080.95;;;-3.83;77.96
36254;BME280;22291;52.250;21.228;2023-02-05T05:12:43;102083.29;;;-3.84;77.90
36254;BME280;22291;52.250;21.228;2023-02-05T05:15:09;102082.13;;;-3.86;77.99
36254;BME280;22291;52.250;21.228;2023-02-05T05:17:35;102092.04;;;-3.84;78.09
36254;BME280;22291;52.250;21.228;2023-02-05T05:20:03;102085.94;;;-3.84;78.09
36254;BME280;22291;52.250;21.228;2023-02-05T05:22:29;102093.36;;;-3.84;78.05
36254;BME280;22291;52.250;21.228;2023-02-05T05:24:56;102089.56;;;-3.85;78.00
36254;BME280;22291;52.250;21.228;2023-02-05T05:27:22;102100.64;;;-3.86;78.01
36254;BME280;22291;52.250;21.228;2023-02-05T05:29:48;102104.27;;;-3.87;77.96
36254;BME280;22291;52.250;21.228;2023-02-05T05:32:15;102107.08;;;-3.88;77.95
36254;BME280;22291;52.250;21.228;2023-02-05T05:34:41;102108.09;;;-3.89;78.06
36254;BME280;22291;52.250;21.228;2023-02-05T05:37:07;102105.61;;;-3.91;78.07
36254;BME280;22291;52.250;21.228;2023-02-05T05:39:33;102102.16;;;-3.91;78.14
36254;BME280;22291;52.250;21.228;2023-02-05T05:42:18;102102.32;;;-3.93;78.24
36254;BME280;22291;52.250;21.228;2023-02-05T05:45:03;102103.80;;;-3.95;78.18
36254;BME280;22291;52.250;21.228;2023-02-05T05:47:30;102107.43;;;-3.96;78.08
36254;BME280;22291;52.250;21.228;2023-02-05T05:49:56;102109.92;;;-3.98;78.15
36254;BME280;22291;52.250;21.228;2023-02-05T05:52:23;102110.41;;;-3.99;78.26
36254;BME280;22291;52.250;21.228;2023-02-05T05:54:49;102120.00;;;-3.98;78.29
36254;BME280;22291;52.250;21.228;2023-02-05T05:57:15;102122.30;;;-3.99;78.32
36254;BME280;22291;52.250;21.228;2023-02-05T05:59:41;102123.14;;;-3.98;78.39
36254;BME280;22291;52.250;21.228;2023-02-05T06:02:07;102126.95;;;-3.97;78.41
36254;BME280;22291;52.250;21.228;2023-02-05T06:04:33;102128.44;;;-3.98;78.44
36254;BME280;22291;52.250;21.228;2023-02-05T06:06:59;102135.86;;;-3.98;78.40
36254;BME280;22291;52.250;21.228;2023-02-05T06:09:27;102137.20;;;-4.02;78.39
36254;BME280;22291;52.250;21.228;2023-02-05T06:11:53;102143.30;;;-4.01;78.45
36254;BME280;22291;52.250;21.228;2023-02-05T06:14:19;102137.20;;;-4.02;78.52
36254;BME280;22291;52.250;21.228;2023-02-05T06:16:45;102144.63;;;-4.01;78.59
36254;BME280;22291;52.250;21.228;2023-02-05T06:19:12;102146.25;;;-4.00;78.65
36254;BME280;22291;52.250;21.228;2023-02-05T06:21:38;102146.77;;;-4.01;78.62
36254;BME280;22291;52.250;21.228;2023-02-05T06:24:05;102149.57;;;-4.02;78.61
36254;BME280;22291;52.250;21.228;2023-02-05T06:26:31;102157.84;;;-4.01;78.76
36254;BME280;22291;52.250;21.228;2023-02-05T06:28:57;102151.55;;;-4.00;78.72
36254;BME280;22291;52.250;21.228;2023-02-05T06:31:25;102157.17;;;-3.99;78.72
36254;BME280;22291;52.250;21.228;2023-02-05T06:33:52;102159.00;;;-4.00;78.72
36254;BME280;22291;52.250;21.228;2023-02-05T06:36:18;102166.42;;;-3.99;78.68
36254;BME280;22291;52.250;21.228;2023-02-05T06:38:44;102159.00;;;-4.00;78.69
36254;BME280;22291;52.250;21.228;2023-02-05T06:41:10;102164.59;;;-3.99;78.81
36254;BME280;22291;52.250;21.228;2023-02-05T06:43:36;102167.24;;;-3.99;78.88
36254;BME280;22291;52.250;21.228;2023-02-05T06:46:03;102164.27;;;-3.96;79.08
36254;BME280;22291;52.250;21.228;2023-02-05T06:48:29;102176.98;;;-3.95;78.94
36254;BME280;22291;52.250;21.228;2023-02-05T06:50:56;102174.17;;;-3.94;79.11
36254;BME280;22291;52.250;21.228;2023-02-05T06:53:22;102177.51;;;-3.91;79.13
36254;BME280;22291;52.250;21.228;2023-02-05T06:55:48;102172.02;;;-3.90;79.28
36254;BME280;22291;52.250;21.228;2023-02-05T06:58:14;102179.16;;;-3.86;79.33
36254;BME280;22291;52.250;21.228;2023-02-05T07:00:41;102179.30;;;-3.84;79.26
36254;BME280;22291;52.250;21.228;2023-02-05T07:03:07;102182.94;;;-3.81;79.35
36254;BME280;22291;52.250;21.228;2023-02-05T07:05:33;102187.56;;;-3.79;79.21
36254;BME280;22291;52.250;21.228;2023-02-05T07:08:00;102186.42;;;-3.76;79.36
36254;BME280;22291;52.250;21.228;2023-02-05T07:10:28;102183.61;;;-3.74;79.30
36254;BME280;22291;52.250;21.228;2023-02-05T07:12:55;102180.59;;;-3.71;79.42
36254;BME280;22291;52.250;21.228;2023-02-05T07:15:21;102181.94;;;-3.67;79.55
36254;BME280;22291;52.250;21.228;2023-02-05T07:17:49;102186.39;;;-3.64;79.56
36254;BME280;22291;52.250;21.228;2023-02-05T07:20:15;102191.83;;;-3.61;79.53
36254;BME280;22291;52.250;21.228;2023-02-05T07:22:43;102192.48;;;-3.55;79.61
36254;BME280;22291;52.250;21.228;2023-02-05T07:25:12;102199.42;;;-3.50;79.50
36254;BME280;22291;52.250;21.228;2023-02-05T07:27:38;102200.25;;;-3.45;79.60
36254;BME280;22291;52.250;21.228;2023-02-05T07:30:06;102208.48;;;-3.36;79.76
36254;BME280;22291;52.250;21.228;2023-02-05T07:32:33;102206.66;;;-3.31;79.57
36254;BME280;22291;52.250;21.228;2023-02-05T07:34:59;102210.27;;;-3.24;79.19
36254;BME280;22291;52.250;21.228;2023-02-05T07:37:25;102212.92;;;-3.20;79.26
36254;BME280;22291;52.250;21.228;2023-02-05T07:39:52;102209.58;;;-3.14;79.49
36254;BME280;22291;52.250;21.228;2023-02-05T07:42:18;102214.20;;;-3.08;79.35
36254;BME280;22291;52.250;21.228;2023-02-05T07:44:44;102211.84;;;-2.98;79.59
36254;BME280;22291;52.250;21.228;2023-02-05T07:47:11;102214.59;;;-2.84;79.45
36254;BME280;22291;52.250;21.228;2023-02-05T07:49:37;102218.98;;;-2.68;79.50
36254;BME280;22291;52.250;21.228;2023-02-05T07:52:06;102224.92;;;-2.34;81.33
36254;BME280;22291;52.250;21.228;2023-02-05T07:54:33;102218.81;;;-1.93;80.52
36254;BME280;22291;52.250;21.228;2023-02-05T07:57:01;102211.45;;;-1.63;80.56
36254;BME280;22291;52.250;21.228;2023-02-05T07:59:28;102205.64;;;-1.33;80.11
36254;BME280;22291;52.250;21.228;2023-02-05T08:01:54;102211.92;;;-1.00;80.34
36254;BME280;22291;52.250;21.228;2023-02-05T08:04:21;102210.77;;;-0.61;79.26
36254;BME280;22291;52.250;21.228;2023-02-05T08:06:47;102207.62;;;-0.28;79.49
36254;BME280;22291;52.250;21.228;2023-02-05T08:09:16;102209.33;;;0.01;78.49
36254;BME280;22291;52.250;21.228;2023-02-05T08:11:42;102213.75;;;0.44;78.59
36254;BME280;22291;52.250;21.228;2023-02-05T08:14:08;102213.78;;;0.79;77.71
36254;BME280;22291;52.250;21.228;2023-02-05T08:16:34;102213.91;;;1.05;76.79
36254;BME280;22291;52.250;21.228;2023-02-05T08:19:01;102213.72;;;1.38;75.26
36254;BME280;22291;52.250;21.228;2023-02-05T08:21:27;102222.14;;;1.85;76.90
36254;BME280;22291;52.250;21.228;2023-02-05T08:23:55;102210.88;;;2.43;74.97
36254;BME280;22291;52.250;21.228;2023-02-05T08:26:23;102220.80;;;3.08;76.02
36254;BME280;22291;52.250;21.228;2023-02-05T08:28:53;102241.66;;;3.77;74.26
36254;BME280;22291;52.250;21.228;2023-02-05T08:31:20;102248.61;;;4.25;72.12
36254;BME280;22291;52.250;21.228;2023-02-05T08:33:46;102247.24;;;4.76;71.42
36254;BME280;22291;52.250;21.228;2023-02-05T08:36:14;102251.44;;;5.18;69.20
36254;BME280;22291;52.250;21.228;2023-02-05T08:38:40;102247.00;;;5.33;67.08
36254;BME280;22291;52.250;21.228;2023-02-05T08:41:10;102252.84;;;5.69;66.98
36254;BME280;22291;52.250;21.228;2023-02-05T08:43:43;102256.14;;;6.13;66.36
36254;BME280;22291;52.250;21.228;2023-02-05T08:46:15;102256.99;;;6.38;64.86
36254;BME280;22291;52.250;21.228;2023-02-05T08:48:48;102258.16;;;6.65;63.81
36254;BME280;22291;52.250;21.228;2023-02-05T08:51:16;102255.58;;;6.82;63.79
36254;BME280;22291;52.250;21.228;2023-02-05T08:53:46;102252.12;;;7.22;63.15
36254;BME280;22291;52.250;21.228;2023-02-05T08:56:12;102258.45;;;7.16;60.59
36254;BME280;22291;52.250;21.228;2023-02-05T08:58:42;102260.23;;;6.61;59.02
36254;BME280;22291;52.250;21.228;2023-02-05T09:01:14;102262.41;;;6.16;58.41
36254;BME280;22291;52.250;21.228;2023-02-05T09:03:44;102261.56;;;5.65;57.69
36254;BME280;22291;52.250;21.228;2023-02-05T09:06:14;102257.37;;;5.38;58.17
36254;BME280;22291;52.250;21.228;2023-02-05T09:08:44;102263.95;;;4.87;57.37
36254;BME280;22291;52.250;21.228;2023-02-05T09:11:10;102275.62;;;4.24;57.25
36254;BME280;22291;52.250;21.228;2023-02-05T09:13:40;102275.83;;;3.74;57.75
36254;BME280;22291;52.250;21.228;2023-02-05T09:16:11;102281.80;;;3.31;57.74
36254;BME280;22291;52.250;21.228;2023-02-05T09:18:37;102286.34;;;2.95;58.36
36254;BME280;22291;52.250;21.228;2023-02-05T09:21:09;102296.97;;;2.52;58.82
36254;BME280;22291;52.250;21.228;2023-02-05T09:23:38;102300.72;;;2.07;58.60
36254;BME280;22291;52.250;21.228;2023-02-05T09:26:08;102307.81;;;1.73;59.58
36254;BME280;22291;52.250;21.228;2023-02-05T09:28:36;102304.00;;;1.41;60.12
36254;BME280;22291;52.250;21.228;2023-02-05T09:31:08;102310.28;;;1.09;59.98
36254;BME280;22291;52.250;21.228;2023-02-05T09:33:37;102308.91;;;0.85;60.65
36254;BME280;22291;52.250;21.228;2023-02-05T09:36:08;102321.52;;;0.59;60.47
36254;BME280;22291;52.250;21.228;2023-02-05T09:38:38;102323.70;;;0.38;60.88
36254;BME280;22291;52.250;21.228;2023-02-05T09:50:00;102320.12;;;-0.39;61.98
36254;BME280;22291;52.250;21.228;2023-02-05T09:52:35;102318.30;;;-0.53;62.24
36254;BME280;22291;52.250;21.228;2023-02-05T09:55:18;102317.30;;;-0.67;62.51
36254;BME280;22291;52.250;21.228;2023-02-05T09:57:52;102310.81;;;-0.79;62.88
36254;BME280;22291;52.250;21.228;2023-02-05T10:17:34;102328.17;;;-1.21;64.00
36254;BME280;22291;52.250;21.228;2023-02-05T10:20:36;102321.76;;;-1.27;64.00
36254;BME280;22291;52.250;21.228;2023-02-05T10:26:08;102328.98;;;-1.36;64.47
36254;BME280;22291;52.250;21.228;2023-02-05T10:31:40;102328.52;;;-1.39;64.55
36254;BME280;22291;52.250;21.228;2023-02-05T10:34:16;102317.55;;;-1.40;64.86
36254;BME280;22291;52.250;21.228;2023-02-05T10:36:51;102310.92;;;-1.40;65.02
36254;BME280;22291;52.250;21.228;2023-02-05T10:39:21;102315.41;;;-1.41;65.01
36254;BME280;22291;52.250;21.228;2023-02-05T10:41:59;102320.39;;;-1.42;65.22
36254;BME280;22291;52.250;21.228;2023-02-05T10:44:37;102314.73;;;-1.39;65.53
36254;BME280;22291;52.250;21.228;2023-02-05T10:47:42;102305.67;;;-1.29;65.61
36254;BME280;22291;52.250;21.228;2023-02-05T10:53:06;102310.55;;;-1.18;65.42
36254;BME280;22291;52.250;21.228;2023-02-05T10:55:33;102304.06;;;-1.16;65.15
36254;BME280;22291;52.250;21.228;2023-02-05T10:58:01;102303.50;;;-1.11;64.86
36254;BME280;22291;52.250;21.228;2023-02-05T11:00:30;102298.19;;;-1.11;65.22
36254;BME280;22291;52.250;21.228;2023-02-05T11:02:58;102299.80;;;-1.06;65.36
36254;BME280;22291;52.250;21.228;2023-02-05T11:05:31;102297.58;;;-0.98;65.48
36254;BME280;22291;52.250;21.228;2023-02-05T11:08:02;102289.36;;;-0.92;65.19
36254;BME280;22291;52.250;21.228;2023-02-05T11:10:32;102285.71;;;-0.91;64.97
36254;BME280;22291;52.250;21.228;2023-02-05T11:13:03;102291.14;;;-0.89;65.57
36254;BME280;22291;52.250;21.228;2023-02-05T11:15:32;102284.75;;;-0.80;65.55
36254;BME280;22291;52.250;21.228;2023-02-05T11:18:02;102289.97;;;-0.71;65.19
36254;BME280;22291;52.250;21.228;2023-02-05T11:20:39;102288.95;;;-0.70;65.06
36254;BME280;22291;52.250;21.228;2023-02-05T11:23:15;102280.09;;;-0.67;64.83
36254;BME280;22291;52.250;21.228;2023-02-05T11:25:55;102276.89;;;-0.62;65.03
36254;BME280;22291;52.250;21.228;2023-02-05T11:28:29;102267.22;;;-0.59;65.08
36254;BME280;22291;52.250;21.228;2023-02-05T11:31:16;102264.64;;;-0.52;64.84
36254;BME280;22291;52.250;21.228;2023-02-05T11:33:47;102276.69;;;-0.46;64.64
36254;BME280;22291;52.250;21.228;2023-02-05T11:36:22;102265.98;;;-0.42;64.56
36254;BME280;22291;52.250;21.228;2023-02-05T11:38:52;102263.73;;;-0.34;65.14
36254;BME280;22291;52.250;21.228;2023-02-05T11:44:30;102272.09;;;-0.15;64.56
36254;BME280;22291;52.250;21.228;2023-02-05T11:46:59;102270.50;;;-0.21;64.38
36254;BME280;22291;52.250;21.228;2023-02-05T11:49:32;102275.19;;;-0.23;64.34
36254;BME280;22291;52.250;21.228;2023-02-05T11:52:06;102278.70;;;-0.22;64.31
36254;BME280;22291;52.250;21.228;2023-02-05T11:54:35;102273.05;;;-0.23;64.48
36254;BME280;22291;52.250;21.228;2023-02-05T12:00:17;102278.30;;;-0.19;64.68
36254;BME280;22291;52.250;21.228;2023-02-05T12:02:39;102274.63;;;-0.18;64.74
36254;BME280;22291;52.250;21.228;2023-02-05T12:07:45;102272.86;;;-0.22;64.18
36254;BME280;22291;52.250;21.228;2023-02-05T12:17:05;102265.55;;;-0.34;63.94
36254;BME280;22291;52.250;21.228;2023-02-05T12:20:28;102270.48;;;-0.42;64.26
36254;BME280;22291;52.250;21.228;2023-02-05T12:28:41;102273.62;;;-0.53;64.55
36254;BME280;22291;52.250;21.228;2023-02-05T12:37:02;102270.36;;;-0.60;65.28
36254;BME280;22291;52.250;21.228;2023-02-05T12:45:21;102273.33;;;-0.69;64.99
36254;BME280;22291;52.250;21.228;2023-02-05T12:50:48;102257.93;;;-0.74;65.37
36254;BME280;22291;52.250;21.228;2023-02-05T12:53:37;102261.47;;;-0.78;65.59
36254;BME280;22291;52.250;21.228;2023-02-05T12:56:38;102264.30;;;-0.79;65.40
36254;BME280;22291;52.250;21.228;2023-02-05T12:59:22;102268.47;;;-0.81;65.30
36254;BME280;22291;52.250;21.228;2023-02-05T13:01:54;102271.83;;;-0.83;65.28
36254;BME280;22291;52.250;21.228;2023-02-05T13:04:35;102263.52;;;-0.84;65.20
36254;BME280;22291;52.250;21.228;2023-02-05T13:10:03;102259.59;;;-0.88;65.27
36254;BME280;22291;52.250;21.228;2023-02-05T13:15:21;102259.14;;;-0.91;64.91
36254;BME280;22291;52.250;21.228;2023-02-05T13:20:45;102262.67;;;-0.95;64.98
36254;BME280;22291;52.250;21.228;2023-02-05T13:23:35;102259.05;;;-0.98;65.12
36254;BME280;22291;52.250;21.228;2023-02-05T13:26:27;102254.64;;;-1.06;65.56
36254;BME280;22291;52.250;21.228;2023-02-05T13:29:13;102258.14;;;-1.05;65.59
36254;BME280;22291;52.250;21.228;2023-02-05T13:31:48;102262.61;;;-1.06;65.45
36254;BME280;22291;52.250;21.228;2023-02-05T13:34:15;102261.80;;;-1.06;65.83
36254;BME280;22291;52.250;21.228;2023-02-05T13:39:58;102274.89;;;-1.05;65.80
36254;BME280;22291;52.250;21.228;2023-02-05T14:00:21;102283.97;;;-1.14;66.26
36254;BME280;22291;52.250;21.228;2023-02-05T14:02:53;102279.66;;;-1.15;66.65
36254;BME280;22291;52.250;21.228;2023-02-05T14:05:28;102277.13;;;-1.13;66.90
36254;BME280;22291;52.250;21.228;2023-02-05T14:07:58;102267.70;;;-1.15;66.67
36254;BME280;22291;52.250;21.228;2023-02-05T14:10:35;102277.45;;;-1.11;66.63
36254;BME280;22291;52.250;21.228;2023-02-05T14:13:29;102269.67;;;-1.13;66.74
36254;BME280;22291;52.250;21.228;2023-02-05T14:15:56;102276.94;;;-1.11;66.69
36254;BME280;22291;52.250;21.228;2023-02-05T14:33:24;102273.14;;;-1.13;66.91
36254;BME280;22291;52.250;21.228;2023-02-05T14:35:37;102271.35;;;-1.16;66.93
36254;BME280;22291;52.250;21.228;2023-02-05T14:38:22;102274.86;;;-1.16;66.97
36254;BME280;22291;52.250;21.228;2023-02-05T14:41:15;102270.02;;;-1.16;66.76
36254;BME280;22291;52.250;21.228;2023-02-05T14:44:04;102271.53;;;-1.18;66.28
36254;BME280;22291;52.250;21.228;2023-02-05T14:46:40;102275.91;;;-1.21;66.14
36254;BME280;22291;52.250;21.228;2023-02-05T14:49:23;102282.27;;;-1.26;66.16
36254;BME280;22291;52.250;21.228;2023-02-05T14:52:06;102282.74;;;-1.26;66.25
36254;BME280;22291;52.250;21.228;2023-02-05T14:54:49;102273.34;;;-1.33;66.16
36254;BME280;22291;52.250;21.228;2023-02-05T15:05:52;102288.25;;;-1.47;66.08
36254;BME280;22291;52.250;21.228;2023-02-05T15:19:48;102319.23;;;-1.62;66.47
36254;BME280;22291;52.250;21.228;2023-02-05T15:22:31;102326.22;;;-1.65;66.46
36254;BME280;22291;52.250;21.228;2023-02-05T15:25:00;102333.53;;;-1.67;66.34
36254;BME280;22291;52.250;21.228;2023-02-05T15:27:48;102333.88;;;-1.71;66.30
36254;BME280;22291;52.250;21.228;2023-02-05T15:30:19;102333.58;;;-1.72;66.33
36254;BME280;22291;52.250;21.228;2023-02-05T15:32:53;102333.92;;;-1.75;66.29
36254;BME280;22291;52.250;21.228;2023-02-05T15:35:29;102327.12;;;-1.77;66.42
36254;BME280;22291;52.250;21.228;2023-02-05T15:38:01;102328.97;;;-1.78;66.57
36254;BME280;22291;52.250;21.228;2023-02-05T15:40:31;102337.27;;;-1.81;66.62
36254;BME280;22291;52.250;21.228;2023-02-05T15:43:19;102342.27;;;-1.82;66.52
36254;BME280;22291;52.250;21.228;2023-02-05T15:45:49;102339.45;;;-1.84;66.63
36254;BME280;22291;52.250;21.228;2023-02-05T15:48:21;102336.67;;;-1.87;66.59
36254;BME280;22291;52.250;21.228;2023-02-05T15:51:31;102330.89;;;-1.91;66.83
36254;BME280;22291;52.250;21.228;2023-02-05T15:54:02;102320.94;;;-1.93;66.74
36254;BME280;22291;52.250;21.228;2023-02-05T15:56:38;102324.95;;;-1.97;66.84
36254;BME280;22291;52.250;21.228;2023-02-05T15:59:13;102331.58;;;-1.97;66.95
36254;BME280;22291;52.250;21.228;2023-02-05T16:01:44;102336.38;;;-1.96;67.05
36254;BME280;22291;52.250;21.228;2023-02-05T16:04:34;102331.08;;;-1.96;66.98
36254;BME280;22291;52.250;21.228;2023-02-05T16:07:17;102334.23;;;-1.97;66.95
36254;BME280;22291;52.250;21.228;2023-02-05T16:09:51;102339.20;;;-1.98;66.92
36254;BME280;22291;52.250;21.228;2023-02-05T16:12:23;102331.28;;;-2.02;66.85
36254;BME280;22291;52.250;21.228;2023-02-05T16:14:58;102339.23;;;-2.02;67.05
36254;BME280;22291;52.250;21.228;2023-02-05T16:17:33;102341.89;;;-2.06;66.93
36254;BME280;22291;52.250;21.228;2023-02-05T16:23:05;102342.10;;;-2.08;67.23
36254;BME280;22291;52.250;21.228;2023-02-05T16:28:35;102336.45;;;-2.09;67.29
36254;BME280;22291;52.250;21.228;2023-02-05T16:31:05;102331.83;;;-2.11;67.45
36254;BME280;22291;52.250;21.228;2023-02-05T16:36:14;102347.41;;;-2.12;67.50